Time;durP1;ratioP1;P1;durP2;ratioP2;P2;SDS_P1;SDS_P2;PMS_P1;PMS_P2;Temp;Humidity;BMP_temperature;BMP_pressure;BME280_temperature;BME280_humidity;BME280_pressure;Samples;Min_cycle;Max_cycle;Signal;HPM_P1;HPM_P2
2024/01/28 00:00:38;;;;;;;17.58;8.98;;;;;1.80;100101.00;;;;5075236;28;20090;-67
2024/01/28 00:03:05;;;;;;;21.13;9.65;;;;;1.90;100095.00;;;;5073934;28;20390;-68
2024/01/28 00:05:32;;;;;;;13.77;8.52;;;;;1.90;100096.00;;;;5073357;28;20045;-67
2024/01/28 00:07:58;;;;;;;15.32;8.90;;;;;1.90;100094.00;;;;5075350;28;20048;-67
2024/01/28 00:10:25;;;;;;;19.17;9.02;;;;;1.90;100100.00;;;;5075767;28;20037;-68
2024/01/28 00:12:52;;;;;;;22.08;10.02;;;;;1.80;100095.00;;;;5075240;28;20044;-67
2024/01/28 00:15:19;;;;;;;22.45;10.10;;;;;1.70;100100.00;;;;5073347;28;20075;-69
2024/01/28 00:17:45;;;;;;;22.30;11.13;;;;;1.80;100090.00;;;;5075442;28;20049;-67
2024/01/28 00:20:15;;;;;;;20.33;10.90;;;;;1.90;100094.00;;;;5074122;28;20572;-67
2024/01/28 00:22:42;;;;;;;18.60;10.25;;;;;1.90;100090.00;;;;5075032;28;20044;-67
2024/01/28 00:25:09;;;;;;;19.80;10.27;;;;;2.00;100091.00;;;;5072974;28;20041;-67
2024/01/28 00:27:35;;;;;;;19.38;10.45;;;;;2.00;100091.00;;;;5073537;28;20048;-67
2024/01/28 00:30:04;;;;;;;18.67;10.57;;;;;1.90;100084.00;;;;5074712;28;20040;-67
2024/01/28 00:32:30;;;;;;;18.58;9.85;;;;;1.90;100083.00;;;;5073596;28;20131;-67
2024/01/28 00:34:57;;;;;;;21.17;9.95;;;;;1.80;100089.00;;;;5072775;28;20075;-67
2024/01/28 00:37:24;;;;;;;16.45;9.15;;;;;1.80;100075.00;;;;5074716;28;20397;-67
2024/01/28 00:39:50;;;;;;;18.20;9.50;;;;;1.90;100074.00;;;;5074596;28;20139;-67
2024/01/28 00:42:17;;;;;;;19.83;10.43;;;;;1.70;100068.00;;;;5074247;28;20043;-67
2024/01/28 00:44:44;;;;;;;14.02;9.15;;;;;1.70;100070.00;;;;5072658;28;20494;-66
2024/01/28 00:47:10;;;;;;;18.10;9.65;;;;;1.60;100075.00;;;;5074449;28;20055;-67
2024/01/28 00:49:37;;;;;;;19.33;9.13;;;;;1.60;100076.00;;;;5074210;28;20132;-67
2024/01/28 00:52:04;;;;;;;22.15;10.45;;;;;1.70;100070.00;;;;5073249;28;20605;-67
2024/01/28 00:54:33;;;;;;;20.10;10.30;;;;;1.80;100074.00;;;;5074102;28;20037;-68
2024/01/28 00:57:02;;;;;;;21.52;9.27;;;;;1.80;100059.00;;;;5074306;28;20072;-67
2024/01/28 00:59:29;;;;;;;16.73;9.07;;;;;1.80;100057.00;;;;5074533;28;20040;-68
2024/01/28 01:01:56;;;;;;;20.45;9.30;;;;;1.80;100057.00;;;;5075699;28;20496;-68
2024/01/28 01:04:22;;;;;;;16.52;8.07;;;;;1.80;100058.00;;;;5073297;28;20071;-68
2024/01/28 01:06:49;;;;;;;14.52;8.63;;;;;1.90;100060.00;;;;5074740;28;20165;-67
2024/01/28 01:09:16;;;;;;;16.08;8.38;;;;;1.80;100059.00;;;;5073082;28;20140;-67
2024/01/28 01:11:43;;;;;;;16.05;9.35;;;;;1.60;100055.00;;;;5074188;28;20056;-67
2024/01/28 01:14:10;;;;;;;17.33;9.80;;;;;1.50;100056.00;;;;5072341;28;20070;-67
2024/01/28 01:16:36;;;;;;;15.95;9.27;;;;;1.50;100063.00;;;;5074260;28;20044;-69
2024/01/28 01:19:03;;;;;;;19.45;9.05;;;;;1.50;100060.00;;;;5072606;28;20051;-68
2024/01/28 01:21:30;;;;;;;19.20;8.90;;;;;1.30;100053.00;;;;5074124;28;20493;-68
2024/01/28 01:23:56;;;;;;;11.57;7.85;;;;;1.30;100051.00;;;;5073807;28;20048;-68
2024/01/28 01:26:29;;;;;;;17.48;8.73;;;;;1.20;100046.00;;;;5074281;28;20287;-68
2024/01/28 01:28:59;;;;;;;18.63;9.18;;;;;1.20;100041.00;;;;5073665;28;20501;-68
2024/01/28 01:31:25;;;;;;;16.42;8.48;;;;;1.20;100037.00;;;;5073025;28;20051;-68
2024/01/28 01:33:52;;;;;;;13.32;8.15;;;;;1.20;100034.00;;;;5073784;28;20119;-68
2024/01/28 01:36:19;;;;;;;12.52;7.82;;;;;1.20;100038.00;;;;5076259;28;20652;-67
2024/01/28 01:38:47;;;;;;;16.73;7.78;;;;;1.20;100034.00;;;;5074826;28;20509;-67
2024/01/28 01:41:14;;;;;;;19.13;8.50;;;;;1.20;100031.00;;;;5056684;28;20055;-68
2024/01/28 01:43:40;;;;;;;19.48;8.27;;;;;1.30;100036.00;;;;5072671;28;20500;-67
2024/01/28 01:46:10;;;;;;;16.50;8.07;;;;;1.20;100036.00;;;;5075005;28;20044;-68
2024/01/28 01:48:37;;;;;;;19.50;8.18;;;;;1.10;100033.00;;;;5074519;28;20099;-68
2024/01/28 01:51:06;;;;;;;13.55;7.53;;;;;1.10;100028.00;;;;5076716;28;20052;-68
2024/01/28 01:53:39;;;;;;;14.43;7.55;;;;;1.20;100028.00;;;;5079740;28;20041;-68
2024/01/28 01:56:06;;;;;;;14.63;8.10;;;;;1.20;100023.00;;;;5083542;28;20045;-68
2024/01/28 01:58:33;;;;;;;14.85;7.90;;;;;1.20;100017.00;;;;5078823;28;20048;-67
2024/01/28 02:01:01;;;;;;;14.85;7.65;;;;;1.30;100020.00;;;;5062137;28;20084;-68
2024/01/28 02:03:29;;;;;;;17.65;8.02;;;;;1.30;100015.00;;;;5088680;28;20044;-68
2024/01/28 02:05:55;;;;;;;14.40;8.07;;;;;1.10;100005.00;;;;5089154;28;20056;-67
2024/01/28 02:08:22;;;;;;;15.25;8.23;;;;;1.10;100011.00;;;;5087071;28;20086;-67
2024/01/28 02:10:49;;;;;;;16.33;8.50;;;;;1.10;100002.00;;;;5076778;28;20041;-68
2024/01/28 02:13:16;;;;;;;14.10;8.15;;;;;1.10;100001.00;;;;5055010;28;20464;-68
2024/01/28 02:15:43;;;;;;;17.20;8.05;;;;;1.00;99994.00;;;;5072212;28;20051;-68
2024/01/28 02:18:10;;;;;;;14.32;8.20;;;;;0.80;99991.00;;;;5071602;28;20139;-67
2024/01/28 02:20:37;;;;;;;12.73;7.57;;;;;0.70;99985.00;;;;5072898;28;20090;-68
2024/01/28 02:23:05;;;;;;;16.63;8.27;;;;;0.60;99980.00;;;;5072808;28;20079;-68
2024/01/28 02:25:33;;;;;;;17.83;7.95;;;;;0.60;99980.00;;;;5070526;28;20056;-67
2024/01/28 02:27:59;;;;;;;15.25;7.72;;;;;0.50;99978.00;;;;5072592;28;20048;-68
2024/01/28 02:30:28;;;;;;;14.70;7.50;;;;;0.50;99978.00;;;;5071417;28;20123;-68
2024/01/28 02:32:55;;;;;;;13.23;7.85;;;;;0.50;99986.00;;;;5071411;28;20124;-67
2024/01/28 02:35:22;;;;;;;16.13;7.28;;;;;0.50;99984.00;;;;5070893;28;20045;-67
2024/01/28 02:37:48;;;;;;;14.27;7.45;;;;;0.60;99990.00;;;;5071679;28;20079;-68
2024/01/28 02:40:15;;;;;;;13.48;7.68;;;;;0.70;100000.00;;;;5071362;28;20041;-68
2024/01/28 02:42:45;;;;;;;12.82;7.00;;;;;0.80;99998.00;;;;5072221;28;20044;-68
2024/01/28 02:45:11;;;;;;;13.95;7.43;;;;;0.90;99991.00;;;;5071577;28;20494;-69
2024/01/28 02:47:38;;;;;;;15.73;7.25;;;;;0.90;99990.00;;;;5072336;28;20363;-68
2024/01/28 02:50:05;;;;;;;13.48;7.00;;;;;0.80;99994.00;;;;5072295;28;20045;-69
2024/01/28 02:52:32;;;;;;;8.95;6.78;;;;;0.80;99995.00;;;;5072287;28;20048;-68
2024/01/28 02:54:58;;;;;;;14.90;7.32;;;;;0.80;99994.00;;;;5070234;28;20036;-69
2024/01/28 02:57:25;;;;;;;15.00;7.60;;;;;0.80;99992.00;;;;5072205;28;20044;-68
2024/01/28 02:59:51;;;;;;;14.02;6.65;;;;;0.80;99982.00;;;;5071892;28;20048;-68
2024/01/28 03:02:18;;;;;;;15.13;7.22;;;;;0.80;99983.00;;;;5072039;28;20048;-68
2024/01/28 03:04:45;;;;;;;15.13;9.32;;;;;0.80;99984.00;;;;5071429;28;20037;-68
2024/01/28 03:07:16;;;;;;;17.42;9.00;;;;;0.80;99984.00;;;;5053554;28;20044;-67
2024/01/28 03:09:42;;;;;;;14.57;7.65;;;;;0.80;99984.00;;;;5054346;28;20094;-69
2024/01/28 03:12:09;;;;;;;15.13;8.25;;;;;0.80;99987.00;;;;5072602;28;20044;-68
2024/01/28 03:14:36;;;;;;;15.07;8.10;;;;;0.80;99982.00;;;;5071454;28;20049;-68
2024/01/28 03:17:03;;;;;;;18.55;7.75;;;;;0.80;99977.00;;;;5053800;28;20055;-69
2024/01/28 03:19:29;;;;;;;16.90;7.45;;;;;0.70;99975.00;;;;5070810;28;20068;-68
2024/01/28 03:21:57;;;;;;;13.85;8.27;;;;;0.70;99984.00;;;;5072167;28;20059;-68
2024/01/28 03:24:29;;;;;;;14.93;6.97;;;;;0.70;99993.00;;;;5071456;28;20036;-68
2024/01/28 03:26:56;;;;;;;17.30;6.38;;;;;0.50;99977.00;;;;5071892;28;20197;-69
2024/01/28 03:29:22;;;;;;;11.20;5.57;;;;;0.40;99973.00;;;;5070436;28;21382;-70
2024/01/28 03:31:49;;;;;;;14.18;6.20;;;;;0.40;99979.00;;;;5071999;28;20044;-68
2024/01/28 03:34:16;;;;;;;10.55;5.65;;;;;0.50;99976.00;;;;5071541;28;20048;-68
2024/01/28 03:36:43;;;;;;;9.80;5.20;;;;;0.50;99968.00;;;;5072013;28;20052;-68
2024/01/28 03:39:09;;;;;;;8.93;5.20;;;;;0.50;99980.00;;;;5071750;28;20093;-68
2024/01/28 03:41:38;;;;;;;11.98;5.97;;;;;0.60;99981.00;;;;5071768;28;20511;-68
2024/01/28 03:44:04;;;;;;;9.18;4.97;;;;;0.60;99985.00;;;;5069847;28;20049;-68
2024/01/28 03:46:32;;;;;;;14.30;6.70;;;;;0.60;99988.00;;;;5070603;28;20128;-68
2024/01/28 03:49:00;;;;;;;9.93;5.68;;;;;0.70;99995.00;;;;5070473;28;20395;-69
2024/01/28 03:51:27;;;;;;;16.25;6.95;;;;;0.60;99981.00;;;;5071505;28;20045;-67
2024/01/28 03:53:54;;;;;;;14.25;6.13;;;;;0.50;99993.00;;;;5070040;28;20044;-69
2024/01/28 03:56:21;;;;;;;12.77;5.50;;;;;0.60;99989.00;;;;5070087;28;20135;-68
2024/01/28 03:58:47;;;;;;;9.13;5.82;;;;;0.60;99993.00;;;;5071666;28;20041;-68
2024/01/28 04:01:14;;;;;;;13.88;6.68;;;;;0.60;100000.00;;;;5071585;28;20165;-68
2024/01/28 04:03:41;;;;;;;12.95;7.18;;;;;0.60;99999.00;;;;5071103;28;20057;-69
2024/01/28 04:06:07;;;;;;;11.55;6.82;;;;;0.50;99983.00;;;;5070318;28;20041;-69
2024/01/28 04:08:34;;;;;;;9.68;5.93;;;;;0.40;99990.00;;;;5071862;28;20509;-68
2024/01/28 04:11:02;;;;;;;12.18;5.78;;;;;0.30;99986.00;;;;5071450;28;20054;-68
2024/01/28 04:13:29;;;;;;;10.63;5.45;;;;;0.20;99988.00;;;;5069949;28;20041;-69
2024/01/28 04:15:56;;;;;;;13.82;5.75;;;;;0.20;99975.00;;;;5071107;28;20111;-69
2024/01/28 04:18:22;;;;;;;10.77;5.88;;;;;0.20;99968.00;;;;5073869;28;20060;-68
2024/01/28 04:20:49;;;;;;;10.73;5.35;;;;;0.30;99973.00;;;;5075022;28;20045;-68
2024/01/28 04:23:16;;;;;;;13.25;5.53;;;;;0.20;99971.00;;;;5073654;28;20176;-68
2024/01/28 04:25:43;;;;;;;9.20;5.50;;;;;0.20;99970.00;;;;5073012;28;20040;-68
2024/01/28 04:28:10;;;;;;;9.75;5.75;;;;;0.10;99955.00;;;;5074700;28;20512;-68
2024/01/28 04:30:36;;;;;;;10.77;5.13;;;;;-0.10;99964.00;;;;5073609;28;20523;-68
2024/01/28 04:33:03;;;;;;;9.82;5.30;;;;;-0.10;99961.00;;;;5056982;28;20056;-68
2024/01/28 04:35:30;;;;;;;10.80;4.97;;;;;-0.10;99963.00;;;;5072960;28;20490;-68
2024/01/28 04:37:57;;;;;;;9.00;4.45;;;;;-0.20;99954.00;;;;5073511;28;20048;-68
2024/01/28 04:40:23;;;;;;;9.30;4.82;;;;;-0.30;99948.00;;;;5074525;28;20047;-69
2024/01/28 04:42:50;;;;;;;7.47;5.07;;;;;-0.30;99954.00;;;;5073580;28;20135;-68
2024/01/28 04:45:17;;;;;;;9.63;4.88;;;;;-0.30;99932.00;;;;5073892;28;20036;-68
2024/01/28 04:47:43;;;;;;;8.95;5.82;;;;;-0.30;99945.00;;;;5074598;28;20044;-69
2024/01/28 04:50:10;;;;;;;13.15;5.45;;;;;-0.30;99947.00;;;;5073169;28;20409;-68
2024/01/28 04:52:37;;;;;;;16.70;11.02;;;;;-0.20;99934.00;;;;5073263;28;20055;-68
2024/01/28 04:55:04;;;;;;;29.67;18.40;;;;;-0.30;99931.00;;;;5073955;28;20049;-68
2024/01/28 04:57:31;;;;;;;31.73;19.52;;;;;-0.30;99933.00;;;;5074313;28;20044;-68
2024/01/28 04:59:58;;;;;;;57.30;34.28;;;;;-0.30;99930.00;;;;5074341;28;20079;-68
2024/01/28 05:02:24;;;;;;;38.47;18.42;;;;;-0.40;99943.00;;;;5074505;28;20378;-68
2024/01/28 05:04:51;;;;;;;11.65;6.13;;;;;-0.20;99945.00;;;;5073555;28;20041;-68
2024/01/28 05:07:18;;;;;;;9.80;5.65;;;;;-0.10;99949.00;;;;5074411;28;20083;-69
2024/01/28 05:09:45;;;;;;;16.70;9.07;;;;;0.00;99942.00;;;;5074135;28;20040;-69
2024/01/28 05:12:12;;;;;;;116.65;58.22;;;;;-0.10;99940.00;;;;5056561;28;20056;-68
2024/01/28 05:14:41;;;;;;;75.03;38.05;;;;;-0.20;99953.00;;;;5072737;28;20048;-69
2024/01/28 05:17:07;;;;;;;105.18;64.60;;;;;-0.30;99937.00;;;;5073151;28;20044;-68
2024/01/28 05:19:34;;;;;;;79.07;50.05;;;;;-0.30;99943.00;;;;5074251;28;20040;-69
2024/01/28 05:22:01;;;;;;;147.35;87.32;;;;;-0.40;99945.00;;;;5074090;28;20036;-68
2024/01/28 05:24:28;;;;;;;59.05;34.45;;;;;-0.50;99953.00;;;;5072215;28;20039;-68
2024/01/28 05:26:55;;;;;;;39.60;25.95;;;;;-0.50;99940.00;;;;5072256;28;20143;-68
2024/01/28 05:29:21;;;;;;;22.77;14.35;;;;;-0.40;99951.00;;;;5073221;28;20048;-69
2024/01/28 05:31:48;;;;;;;16.95;10.60;;;;;-0.40;99954.00;;;;5072822;28;20501;-68
2024/01/28 05:34:15;;;;;;;11.65;6.63;;;;;-0.30;99948.00;;;;5055611;28;20049;-68
2024/01/28 05:36:41;;;;;;;12.90;7.32;;;;;-0.30;99941.00;;;;5074365;28;20045;-68
2024/01/28 05:39:08;;;;;;;14.40;7.20;;;;;-0.40;99937.00;;;;5056239;28;20044;-68
2024/01/28 05:41:35;;;;;;;8.70;5.65;;;;;-0.50;99937.00;;;;5072551;28;20127;-69
2024/01/28 05:44:04;;;;;;;10.13;5.43;;;;;-0.50;99921.00;;;;5072064;28;20132;-68
2024/01/28 05:46:31;;;;;;;7.13;5.18;;;;;-0.40;99929.00;;;;5056126;28;20048;-72
2024/01/28 05:48:57;;;;;;;8.07;5.05;;;;;-0.40;99922.00;;;;5072237;28;20056;-68
2024/01/28 05:51:26;;;;;;;11.40;6.32;;;;;-0.30;99921.00;;;;5073198;28;20037;-68
2024/01/28 05:53:56;;;;;;;9.30;5.07;;;;;-0.40;99921.00;;;;5071646;28;20059;-69
2024/01/28 05:56:23;;;;;;;12.73;7.22;;;;;-0.40;99920.00;;;;5073402;28;20564;-68
2024/01/28 05:58:49;;;;;;;13.02;7.35;;;;;-0.40;99912.00;;;;5072077;28;20049;-68
2024/01/28 06:01:16;;;;;;;40.85;23.38;;;;;-0.50;99914.00;;;;5071892;28;20041;-68
2024/01/28 06:03:42;;;;;;;75.22;36.10;;;;;-0.60;99919.00;;;;5071372;28;20501;-67
2024/01/28 06:06:09;;;;;;;55.03;27.40;;;;;-0.60;99921.00;;;;5073293;28;20105;-67
2024/01/28 06:08:36;;;;;;;85.53;44.78;;;;;-0.60;99916.00;;;;5071773;28;20049;-68
2024/01/28 06:11:03;;;;;;;69.57;40.70;;;;;-0.60;99911.00;;;;5072767;28;20049;-68
2024/01/28 06:13:30;;;;;;;59.67;34.45;;;;;-0.60;99915.00;;;;5072643;28;20045;-68
2024/01/28 06:15:57;;;;;;;35.00;26.02;;;;;-0.60;99906.00;;;;5071460;28;20482;-68
2024/01/28 06:18:23;;;;;;;11.57;9.40;;;;;-0.60;99915.00;;;;5073112;28;20054;-68
2024/01/28 06:20:50;;;;;;;14.02;7.18;;;;;-0.50;99908.00;;;;5072874;28;20052;-68
2024/01/28 06:23:17;;;;;;;12.90;7.40;;;;;-0.50;99914.00;;;;5073559;28;20055;-68
2024/01/28 06:25:43;;;;;;;14.55;6.30;;;;;-0.40;99921.00;;;;5072280;28;20043;-69
2024/01/28 06:28:10;;;;;;;13.70;6.10;;;;;-0.30;99918.00;;;;5073045;28;20068;-68
2024/01/28 06:30:37;;;;;;;14.90;6.43;;;;;-0.20;99909.00;;;;5071382;28;20468;-68
2024/01/28 06:33:04;;;;;;;12.20;5.85;;;;;-0.10;99913.00;;;;5071526;28;20056;-69
2024/01/28 06:35:31;;;;;;;11.13;6.80;;;;;-0.10;99912.00;;;;5071828;28;20082;-69
2024/01/28 06:37:57;;;;;;;9.88;6.32;;;;;-0.10;99913.00;;;;5072474;28;20041;-68
2024/01/28 06:40:24;;;;;;;14.27;6.55;;;;;-0.10;99916.00;;;;5072229;28;20036;-68
2024/01/28 06:42:51;;;;;;;13.35;6.85;;;;;-0.10;99917.00;;;;5054785;28;20045;-68
2024/01/28 06:45:19;;;;;;;13.52;6.43;;;;;-0.10;99919.00;;;;5070699;28;20044;-69
2024/01/28 06:47:46;;;;;;;11.90;6.07;;;;;-0.10;99917.00;;;;5071387;28;20173;-69
2024/01/28 06:50:13;;;;;;;11.30;6.10;;;;;-0.10;99908.00;;;;5072676;28;20041;-69
2024/01/28 06:52:41;;;;;;;10.70;6.05;;;;;0.00;99904.00;;;;5054828;28;20047;-68
2024/01/28 06:55:09;;;;;;;10.23;5.85;;;;;0.00;99911.00;;;;5071927;28;20378;-69
2024/01/28 06:57:35;;;;;;;11.65;6.53;;;;;-0.10;99913.00;;;;5071029;28;20043;-69
2024/01/28 07:00:04;;;;;;;11.90;6.22;;;;;-0.20;99924.00;;;;5071189;28;20072;-69
2024/01/28 07:02:31;;;;;;;13.20;6.40;;;;;-0.30;99919.00;;;;5071466;28;20050;-68
2024/01/28 07:04:59;;;;;;;12.30;6.40;;;;;-0.20;99934.00;;;;5071730;28;20124;-68
2024/01/28 07:07:26;;;;;;;18.63;9.43;;;;;-0.20;99932.00;;;;5072634;28;20056;-69
2024/01/28 07:09:52;;;;;;;15.35;8.68;;;;;-0.10;99927.00;;;;5072389;28;20045;-69
2024/01/28 07:12:19;;;;;;;12.52;7.90;;;;;0.00;99927.00;;;;5072417;28;20580;-69
2024/01/28 07:14:46;;;;;;;11.05;7.60;;;;;0.00;99929.00;;;;5070413;28;20048;-68
2024/01/28 07:17:12;;;;;;;15.50;8.23;;;;;0.00;99931.00;;;;5071099;28;20524;-69
2024/01/28 07:19:40;;;;;;;16.42;8.90;;;;;0.00;99937.00;;;;5054561;28;20044;-68
2024/01/28 07:22:07;;;;;;;12.05;6.90;;;;;-0.10;99917.00;;;;5072330;28;20047;-68
2024/01/28 07:24:34;;;;;;;12.23;6.47;;;;;-0.20;99918.00;;;;5070627;28;20106;-69
2024/01/28 07:27:02;;;;;;;17.17;7.07;;;;;-0.20;99917.00;;;;5071546;28;20467;-68
2024/01/28 07:29:28;;;;;;;10.85;6.60;;;;;-0.20;99925.00;;;;5072197;28;20072;-69
2024/01/28 07:31:55;;;;;;;14.95;7.95;;;;;-0.10;99926.00;;;;5072156;28;20047;-69
2024/01/28 07:34:23;;;;;;;15.68;7.57;;;;;-0.20;99923.00;;;;5070490;28;20098;-69
2024/01/28 07:36:51;;;;;;;16.13;8.60;;;;;-0.40;99927.00;;;;5072134;28;20071;-68
2024/01/28 07:39:18;;;;;;;16.55;8.07;;;;;-0.40;99925.00;;;;5071994;28;20106;-68
2024/01/28 07:41:44;;;;;;;15.27;8.15;;;;;-0.20;99910.00;;;;5070888;28;20547;-68
2024/01/28 07:44:11;;;;;;;12.10;7.32;;;;;0.00;99926.00;;;;5071599;28;20120;-69
2024/01/28 07:46:37;;;;;;;16.00;7.00;;;;;0.00;99924.00;;;;5070717;28;20136;-68
2024/01/28 07:49:04;;;;;;;16.80;9.02;;;;;0.10;99924.00;;;;5054255;28;20095;-68
2024/01/28 07:51:31;;;;;;;12.65;8.57;;;;;0.10;99927.00;;;;5073978;28;20103;-68
2024/01/28 07:53:57;;;;;;;14.82;9.85;;;;;0.10;99923.00;;;;5074390;28;20040;-68
2024/01/28 07:56:24;;;;;;;19.60;9.25;;;;;0.20;99924.00;;;;5075980;28;20075;-68
2024/01/28 07:58:50;;;;;;;15.95;7.90;;;;;0.20;99916.00;;;;5076146;28;20043;-68
2024/01/28 08:01:17;;;;;;;16.20;7.38;;;;;0.20;99919.00;;;;5075937;28;20127;-69
2024/01/28 08:03:44;;;;;;;12.85;7.85;;;;;0.30;99922.00;;;;5075167;28;20130;-68
2024/01/28 08:06:11;;;;;;;14.68;7.10;;;;;0.40;99923.00;;;;5075514;28;20056;-68
2024/01/28 08:08:38;;;;;;;11.70;6.63;;;;;0.70;99932.00;;;;5074362;28;20053;-68
2024/01/28 08:11:05;;;;;;;12.48;5.78;;;;;0.80;99927.00;;;;5074030;28;20048;-68
2024/01/28 08:13:33;;;;;;;11.20;6.43;;;;;1.00;99931.00;;;;5074706;28;20444;-68
2024/01/28 08:16:03;;;;;;;10.75;6.28;;;;;1.10;99930.00;;;;5075068;28;20045;-67
2024/01/28 08:18:30;;;;;;;11.60;6.40;;;;;1.20;99940.00;;;;5057270;28;20502;-66
2024/01/28 08:20:57;;;;;;;11.75;5.45;;;;;1.20;99943.00;;;;5074853;28;20482;-66
2024/01/28 08:23:26;;;;;;;13.13;6.47;;;;;1.10;99942.00;;;;5073224;28;20045;-68
2024/01/28 08:25:53;;;;;;;9.43;6.07;;;;;1.00;99937.00;;;;5074829;28;20036;-66
2024/01/28 08:28:21;;;;;;;13.98;6.53;;;;;1.20;99931.00;;;;5074866;28;20047;-66
2024/01/28 08:30:48;;;;;;;13.35;6.65;;;;;1.30;99932.00;;;;5075384;28;20540;-66
2024/01/28 08:33:15;;;;;;;11.60;6.72;;;;;1.50;99933.00;;;;5075121;28;20509;-67
2024/01/28 08:35:43;;;;;;;11.77;6.20;;;;;1.70;99926.00;;;;5073322;28;20412;-67
2024/01/28 08:38:10;;;;;;;11.88;7.07;;;;;1.80;99927.00;;;;5075038;28;20051;-67
2024/01/28 08:40:39;;;;;;;11.55;7.10;;;;;1.90;99930.00;;;;5073981;28;20044;-66
2024/01/28 08:43:08;;;;;;;9.32;6.50;;;;;1.70;99926.00;;;;5073919;28;20048;-66
2024/01/28 08:45:36;;;;;;;13.00;8.05;;;;;1.60;99930.00;;;;5072966;28;20123;-66
2024/01/28 08:48:03;;;;;;;17.85;8.43;;;;;1.70;99937.00;;;;5073578;28;20049;-67
2024/01/28 08:50:30;;;;;;;14.43;7.63;;;;;1.90;99936.00;;;;5056971;28;20064;-67
2024/01/28 08:52:57;;;;;;;13.40;7.85;;;;;2.00;99930.00;;;;5073313;28;20082;-67
2024/01/28 08:55:24;;;;;;;12.65;7.22;;;;;2.10;99935.00;;;;5074107;28;20485;-66
2024/01/28 08:57:53;;;;;;;14.52;9.13;;;;;2.10;99938.00;;;;5073760;28;20044;-66
2024/01/28 09:00:20;;;;;;;14.73;8.45;;;;;2.20;99938.00;;;;5074362;28;20067;-66
2024/01/28 09:02:47;;;;;;;15.65;8.18;;;;;2.30;99937.00;;;;5073254;28;20071;-67
2024/01/28 09:05:14;;;;;;;11.00;7.25;;;;;2.30;99937.00;;;;5072525;28;20055;-66
2024/01/28 09:07:41;;;;;;;13.93;8.13;;;;;2.30;99935.00;;;;5073134;28;20048;-68
2024/01/28 09:10:09;;;;;;;18.08;10.68;;;;;2.50;99940.00;;;;5074399;28;20106;-66
2024/01/28 09:12:35;;;;;;;12.48;7.85;;;;;2.50;99944.00;;;;5074317;28;20044;-67
2024/01/28 09:15:02;;;;;;;15.30;8.30;;;;;2.60;99946.00;;;;5073703;28;20036;-66
2024/01/28 09:17:29;;;;;;;13.30;8.93;;;;;2.80;99945.00;;;;5074726;28;20041;-66
2024/01/28 09:19:59;;;;;;;16.75;10.25;;;;;2.80;99945.00;;;;5072849;28;20121;-67
2024/01/28 09:22:26;;;;;;;24.88;7.55;;;;;2.90;99949.00;;;;5073957;28;20083;-66
2024/01/28 09:24:52;;;;;;;15.48;8.02;;;;;3.00;99947.00;;;;5073761;28;20048;-66
2024/01/28 09:27:22;;;;;;;15.20;8.15;;;;;3.30;99952.00;;;;5073992;28;20115;-67
2024/01/28 09:29:50;;;;;;;15.65;9.20;;;;;3.40;99950.00;;;;5076657;28;20044;-66
2024/01/28 09:32:18;;;;;;;11.68;8.38;;;;;3.50;99948.00;;;;5074663;28;20045;-66
2024/01/28 09:34:47;;;;;;;18.58;10.45;;;;;3.60;99951.00;;;;5073380;28;20044;-67
2024/01/28 09:37:17;;;;;;;13.95;8.95;;;;;3.60;99950.00;;;;5056587;28;20139;-66
2024/01/28 09:39:47;;;;;;;15.40;8.00;;;;;3.60;99944.00;;;;5072767;28;20064;-67
2024/01/28 09:42:36;;;;;;;12.75;7.57;;;;;3.80;99949.00;;;;5074016;28;20048;-67
2024/01/28 09:45:02;;;;;;;14.18;7.97;;;;;3.90;99949.00;;;;5072555;28;20485;-66
2024/01/28 09:47:32;;;;;;;15.85;9.20;;;;;4.00;99945.00;;;;5073348;28;20044;-67
2024/01/28 09:50:03;;;;;;;11.80;7.88;;;;;4.10;99943.00;;;;5074319;28;20094;-66
2024/01/28 09:52:31;;;;;;;16.02;8.00;;;;;4.30;99951.00;;;;5075063;28;20041;-67
2024/01/28 09:55:00;;;;;;;13.57;8.15;;;;;4.30;99947.00;;;;5074892;28;20056;-67
2024/01/28 09:57:28;;;;;;;12.90;8.25;;;;;4.50;99951.00;;;;5075746;28;20063;-67
2024/01/28 09:59:55;;;;;;;15.13;8.65;;;;;4.60;99943.00;;;;5078260;28;20051;-66
2024/01/28 10:02:22;;;;;;;18.80;9.50;;;;;4.60;99941.00;;;;5074966;28;20040;-66
2024/01/28 10:04:49;;;;;;;15.40;8.18;;;;;4.70;99947.00;;;;5057247;28;20094;-67
2024/01/28 10:07:16;;;;;;;11.55;7.82;;;;;4.80;99950.00;;;;5073086;28;20076;-66
2024/01/28 10:09:44;;;;;;;13.65;8.07;;;;;4.90;99955.00;;;;5074467;28;20044;-67
2024/01/28 10:12:11;;;;;;;14.43;8.82;;;;;5.10;99950.00;;;;5071828;28;20598;-67
2024/01/28 10:14:37;;;;;;;14.23;8.95;;;;;5.30;99946.00;;;;5071797;28;20048;-67
2024/01/28 10:17:04;;;;;;;15.80;10.00;;;;;5.40;99951.00;;;;5071514;28;20143;-66
2024/01/28 10:19:31;;;;;;;17.58;10.98;;;;;5.50;99947.00;;;;5055211;28;20049;-66
2024/01/28 10:22:01;;;;;;;44.78;24.00;;;;;5.80;99943.00;;;;5073218;28;20102;-66
2024/01/28 10:24:28;;;;;;;18.58;11.20;;;;;6.00;99946.00;;;;5077928;28;20577;-68
2024/01/28 10:26:57;;;;;;;24.38;10.88;;;;;6.10;99949.00;;;;5076359;28;20045;-67
2024/01/28 10:29:25;;;;;;;16.27;9.35;;;;;6.20;99952.00;;;;5075539;28;20045;-66
2024/01/28 10:31:52;;;;;;;17.17;10.20;;;;;6.40;99952.00;;;;5074959;28;20036;-66
2024/01/28 10:34:18;;;;;;;14.20;8.80;;;;;6.40;99955.00;;;;5074595;28;20123;-67
2024/01/28 10:36:47;;;;;;;15.13;8.57;;;;;6.50;99957.00;;;;5075231;28;20234;-67
2024/01/28 10:39:14;;;;;;;14.57;8.27;;;;;6.60;99952.00;;;;5075977;28;20074;-66
2024/01/28 10:41:44;;;;;;;14.90;8.90;;;;;6.60;99949.00;;;;5071352;28;20113;-66
2024/01/28 10:44:13;;;;;;;19.15;12.32;;;;;6.60;99950.00;;;;5071580;28;20105;-66
2024/01/28 10:46:41;;;;;;;297.73;128.68;;;;;6.70;99945.00;;;;5072090;28;20048;-65
2024/01/28 10:49:09;;;;;;;52.95;25.77;;;;;6.90;99943.00;;;;5071083;28;20055;-66
2024/01/28 10:51:39;;;;;;;12.85;6.85;;;;;7.00;99942.00;;;;5071151;28;20412;-66
2024/01/28 10:54:09;;;;;;;9.73;6.25;;;;;7.00;99940.00;;;;5071841;28;20040;-65
2024/01/28 10:56:37;;;;;;;9.27;6.00;;;;;7.10;99938.00;;;;5054126;28;20045;-67
2024/01/28 10:59:04;;;;;;;16.58;6.22;;;;;7.20;99928.00;;;;5072240;28;20051;-67
2024/01/28 11:01:33;;;;;;;11.45;5.72;;;;;7.30;99920.00;;;;5072248;28;20049;-67
2024/01/28 11:04:03;;;;;;;21.60;12.18;;;;;7.30;99922.00;;;;5071489;28;20105;-67
2024/01/28 11:06:30;;;;;;;10.73;5.93;;;;;7.40;99916.00;;;;5072175;28;20041;-67
2024/01/28 11:08:58;;;;;;;14.20;6.85;;;;;7.40;99914.00;;;;5072229;28;20387;-67
2024/01/28 11:11:26;;;;;;;11.18;6.43;;;;;7.50;99904.00;;;;5072046;28;20056;-67
2024/01/28 11:13:55;;;;;;;9.95;5.80;;;;;7.60;99905.00;;;;5070463;28;20110;-68
2024/01/28 11:16:22;;;;;;;12.38;6.95;;;;;7.70;99902.00;;;;5072163;28;20064;-68
2024/01/28 11:19:04;;;;;;;13.32;7.72;;;;;7.90;99900.00;;;;5072164;28;20040;-66
2024/01/28 11:21:33;;;;;;;10.65;6.20;;;;;8.00;99899.00;;;;5072226;28;20115;-67
2024/01/28 11:24:08;;;;;;;10.05;5.60;;;;;7.90;99893.00;;;;5070106;28;20136;-68
2024/01/28 11:26:37;;;;;;;8.85;5.75;;;;;7.90;99894.00;;;;5071984;28;20039;-66
2024/01/28 11:29:09;;;;;;;8.98;5.80;;;;;8.00;99885.00;;;;5076197;28;20054;-67
2024/01/28 11:31:39;;;;;;;8.93;5.65;;;;;8.10;99881.00;;;;5058357;28;20053;-67
2024/01/28 11:34:11;;;;;;;10.70;5.55;;;;;8.20;99882.00;;;;5075513;28;20046;-66
2024/01/28 11:36:44;;;;;;;15.47;6.77;;;;;8.20;99879.00;;;;5074412;28;20128;-65
2024/01/28 11:39:13;;;;;;;6.68;4.70;;;;;8.30;99876.00;;;;5058021;28;20287;-65
2024/01/28 11:41:43;;;;;;;7.78;5.38;;;;;8.30;99868.00;;;;5076054;28;20056;-65
2024/01/28 11:44:12;;;;;;;10.43;5.03;;;;;8.40;99861.00;;;;5075224;28;20045;-64
2024/01/28 11:46:39;;;;;;;11.13;5.07;;;;;8.40;99868.00;;;;5074411;28;20040;-66
2024/01/28 11:49:08;;;;;;;13.65;8.45;;;;;8.50;99858.00;;;;5075967;28;20097;-67
2024/01/28 11:51:35;;;;;;;14.50;8.65;;;;;8.60;99854.00;;;;5076770;28;20048;-66
2024/01/28 11:54:06;;;;;;;7.38;5.00;;;;;8.60;99856.00;;;;5076657;28;20127;-66
2024/01/28 11:56:33;;;;;;;7.68;4.65;;;;;8.70;99848.00;;;;5074955;28;20486;-67
2024/01/28 11:59:02;;;;;;;9.82;5.32;;;;;8.80;99845.00;;;;5075911;28;20040;-66
2024/01/28 12:01:29;;;;;;;9.02;5.75;;;;;9.00;99847.00;;;;5057883;28;20517;-66
2024/01/28 12:03:56;;;;;;;9.63;5.47;;;;;9.10;99847.00;;;;5075266;28;20048;-66
2024/01/28 12:06:32;;;;;;;7.30;4.38;;;;;9.20;99849.00;;;;5076300;28;20086;-65
2024/01/28 12:09:00;;;;;;;6.78;4.00;;;;;9.20;99852.00;;;;5075766;28;20124;-66
2024/01/28 12:11:28;;;;;;;11.20;5.05;;;;;9.30;99847.00;;;;5075514;28;20072;-65
2024/01/28 12:13:55;;;;;;;7.10;4.65;;;;;9.40;99850.00;;;;5074927;28;20036;-65